createdAt,value
2019-01-09T00:01:12.222Z,5.83
2019-01-09T00:03:39.997Z,5.10
2019-01-09T00:06:08.792Z,3.47
2019-01-09T00:08:36.318Z,8.60
2019-01-09T00:11:04.210Z,7.13
2019-01-09T00:13:34.509Z,5.83
2019-01-09T00:16:02.145Z,5.20
2019-01-09T00:18:29.735Z,5.67
2019-01-09T00:20:59.221Z,9.93
2019-01-09T00:23:30.603Z,6.83
2019-01-09T00:26:02.796Z,7.10
2019-01-09T00:28:33.401Z,5.63
2019-01-09T00:31:01.037Z,8.23
2019-01-09T00:33:31.113Z,5.50
2019-01-09T00:35:58.731Z,8.17
2019-01-09T00:38:26.333Z,4.60
2019-01-09T00:40:57.697Z,7.13
2019-01-09T00:43:25.383Z,4.90
2019-01-09T00:45:52.987Z,5.97
2019-01-09T00:48:20.732Z,5.17
2019-01-09T00:50:48.499Z,8.47
2019-01-09T00:53:17.173Z,4.23
2019-01-09T00:55:44.904Z,6.07
2019-01-09T00:58:12.477Z,5.10
2019-01-09T01:00:42.451Z,3.83
2019-01-09T01:04:08.833Z,7.60
2019-01-09T01:07:12.470Z,7.50
2019-01-09T01:10:33.123Z,10.90
2019-01-09T01:13:48.714Z,5.20
2019-01-09T01:17:12.175Z,5.07
2019-01-09T01:19:59.553Z,6.07
2019-01-09T01:23:17.975Z,5.63
2019-01-09T01:26:29.859Z,5.40
2019-01-09T01:29:38.085Z,3.30
2019-01-09T01:32:56.333Z,3.53
2019-01-09T01:35:37.872Z,7.50
2019-01-09T01:38:32.611Z,5.53
2019-01-09T01:41:41.502Z,8.60
2019-01-09T01:44:41.393Z,4.10
2019-01-09T01:47:50.023Z,5.77
2019-01-09T01:50:55.277Z,9.03
2019-01-09T01:53:49.359Z,6.57
2019-01-09T01:57:01.915Z,6.47
2019-01-09T01:59:47.566Z,5.80
2019-01-09T02:02:32.685Z,6.57
2019-01-09T02:05:45.265Z,3.27
2019-01-09T02:08:56.771Z,4.17
2019-01-09T02:11:43.843Z,5.37
2019-01-09T02:15:14.546Z,4.87
2019-01-09T02:18:11.967Z,6.47
2019-01-09T02:21:12.992Z,6.17
2019-01-09T02:24:30.800Z,5.67
2019-01-09T02:27:33.433Z,6.83
2019-01-09T02:30:58.317Z,6.20
2019-01-09T02:33:25.947Z,8.07
2019-01-09T02:35:53.525Z,5.47
2019-01-09T02:38:21.324Z,8.43
2019-01-09T02:40:48.934Z,4.60
2019-01-09T02:43:16.479Z,5.17
2019-01-09T02:45:44.120Z,3.53
2019-01-09T02:48:11.865Z,9.13
2019-01-09T02:50:39.465Z,6.80
2019-01-09T02:53:07.105Z,3.87
2019-01-09T02:55:34.710Z,7.07
2019-01-09T02:58:06.094Z,4.50
2019-01-09T03:00:33.665Z,5.93
2019-01-09T03:03:01.327Z,5.27
2019-01-09T03:05:37.723Z,3.00
2019-01-09T03:08:06.419Z,3.23
2019-01-09T03:10:33.978Z,2.03
2019-01-09T03:13:02.749Z,5.23
2019-01-09T03:15:30.330Z,4.80
2019-01-09T03:17:57.974Z,4.00
2019-01-09T03:20:27.758Z,6.50
2019-01-09T03:22:55.384Z,1.63
2019-01-09T03:25:22.986Z,4.53
2019-01-09T03:27:50.754Z,4.20
2019-01-09T03:30:18.378Z,3.77
2019-01-09T03:32:45.994Z,3.00
2019-01-09T03:35:13.727Z,2.83
2019-01-09T03:37:42.369Z,3.73
2019-01-09T03:40:09.986Z,5.90
2019-01-09T03:42:38.109Z,3.17
2019-01-09T03:45:06.377Z,5.07
2019-01-09T03:47:34.028Z,6.00
2019-01-09T03:50:01.713Z,2.83
2019-01-09T03:52:29.367Z,6.43
2019-01-09T03:54:56.961Z,3.27
2019-01-09T03:57:24.925Z,3.53
2019-01-09T03:59:52.540Z,4.63
2019-01-09T04:02:20.122Z,2.33
2019-01-09T04:04:47.732Z,5.40
2019-01-09T04:07:15.463Z,6.47
2019-01-09T04:09:43.132Z,1.57
2019-01-09T04:12:10.915Z,2.63
2019-01-09T04:14:38.517Z,1.47
2019-01-09T04:17:06.109Z,3.20
2019-01-09T04:19:34.018Z,3.53
2019-01-09T04:22:01.620Z,2.83
2019-01-09T04:24:30.322Z,1.70
2019-01-09T04:26:58.117Z,2.95
2019-01-09T04:29:25.983Z,2.52
2019-01-09T04:31:53.598Z,4.67
2019-01-09T04:34:21.442Z,6.30
2019-01-09T04:36:51.921Z,6.35
2019-01-09T04:39:19.037Z,3.35
2019-01-09T04:41:47.219Z,1.07
2019-01-09T04:44:14.839Z,1.65
2019-01-09T04:46:42.464Z,2.27
2019-01-09T04:49:10.119Z,4.22
2019-01-09T04:51:37.717Z,1.90
2019-01-09T04:54:05.315Z,3.33
2019-01-09T04:56:33.225Z,3.83
2019-01-09T04:59:00.842Z,2.93
2019-01-09T05:01:28.514Z,6.00
2019-01-09T05:03:56.177Z,8.83
2019-01-09T05:06:23.785Z,5.17
2019-01-09T05:08:51.338Z,7.50
2019-01-09T05:11:18.997Z,4.53
2019-01-09T05:13:46.607Z,5.25
2019-01-09T05:16:15.986Z,4.62
2019-01-09T05:18:43.773Z,3.50
2019-01-09T05:21:11.370Z,5.08
2019-01-09T05:23:38.970Z,3.63
2019-01-09T05:26:06.606Z,6.30
2019-01-09T05:28:35.517Z,6.83
2019-01-09T05:31:07.588Z,5.05
2019-01-09T05:33:34.582Z,7.25
2019-01-09T05:36:02.239Z,3.72
2019-01-09T05:38:29.865Z,8.50
2019-01-09T05:41:00.583Z,7.78
2019-01-09T05:43:28.292Z,7.80
2019-01-09T05:45:57.900Z,6.07
2019-01-09T05:48:25.528Z,6.50
2019-01-09T05:50:53.305Z,6.55
2019-01-09T05:53:21.027Z,6.40
2019-01-09T05:55:48.635Z,7.22
2019-01-09T05:58:18.687Z,9.58
2019-01-09T06:00:47.433Z,3.80
2019-01-09T06:03:15.057Z,5.92
2019-01-09T06:05:44.502Z,6.83
2019-01-09T06:08:13.907Z,7.65
2019-01-09T06:10:41.728Z,5.10
2019-01-09T06:13:09.329Z,3.87
2019-01-09T06:15:36.920Z,8.43
2019-01-09T06:18:04.750Z,3.70
2019-01-09T06:20:41.683Z,3.98
2019-01-09T06:23:09.442Z,5.42
2019-01-09T06:25:40.401Z,7.25
2019-01-09T06:28:07.997Z,5.75
2019-01-09T06:30:38.511Z,5.47
2019-01-09T06:33:06.110Z,6.30
2019-01-09T06:35:35.409Z,7.22
2019-01-09T06:38:03.110Z,7.43
2019-01-09T06:40:30.731Z,4.63
2019-01-09T06:42:58.346Z,7.10
2019-01-09T06:45:26.115Z,4.33
2019-01-09T06:47:53.667Z,6.50
2019-01-09T06:50:23.873Z,6.47
2019-01-09T06:52:51.577Z,2.72
2019-01-09T06:55:21.709Z,4.30
2019-01-09T06:57:49.266Z,6.97
2019-01-09T07:00:16.875Z,5.75
2019-01-09T07:02:45.469Z,6.17
2019-01-09T07:05:13.041Z,2.08
2019-01-09T07:07:40.806Z,4.22
2019-01-09T07:10:08.641Z,3.72
2019-01-09T07:12:36.166Z,3.27
2019-01-09T07:15:11.363Z,6.55
2019-01-09T07:17:33.441Z,3.40
2019-01-09T07:20:01.031Z,5.62
2019-01-09T07:22:41.190Z,4.00
2019-01-09T07:25:08.795Z,6.37
2019-01-09T07:27:36.373Z,4.70
2019-01-09T07:30:04.681Z,8.25
2019-01-09T07:32:32.286Z,6.03
2019-01-09T07:34:59.881Z,2.87
2019-01-09T07:37:27.574Z,3.83
2019-01-09T07:39:55.231Z,3.87
2019-01-09T07:42:22.931Z,4.42
2019-01-09T07:44:52.854Z,6.42
2019-01-09T07:47:20.565Z,3.47
2019-01-09T07:49:50.853Z,4.72
2019-01-09T07:52:18.661Z,5.80
2019-01-09T07:54:49.251Z,3.30
2019-01-09T07:57:16.936Z,6.47
2019-01-09T07:59:44.745Z,3.70
2019-01-09T08:02:12.468Z,6.37
2019-01-09T08:04:42.102Z,3.37
2019-01-09T08:07:09.827Z,4.62
2019-01-09T08:09:37.474Z,5.65
2019-01-09T08:12:12.386Z,5.33
2019-01-09T08:14:42.789Z,4.33
2019-01-09T08:17:10.445Z,3.77
2019-01-09T08:19:39.170Z,6.77
2019-01-09T08:22:15.279Z,5.27
2019-01-09T08:24:43.269Z,4.17
2019-01-09T08:27:10.959Z,5.50
2019-01-09T08:29:38.592Z,6.23
2019-01-09T08:32:06.338Z,4.53
2019-01-09T08:34:33.908Z,2.43
2019-01-09T08:37:02.921Z,6.05
2019-01-09T08:39:30.996Z,4.03
2019-01-09T08:41:58.786Z,4.47
2019-01-09T08:44:26.714Z,6.47
2019-01-09T08:46:54.440Z,2.00
2019-01-09T08:49:22.164Z,2.30
2019-01-09T08:51:49.827Z,5.63
2019-01-09T08:54:17.588Z,4.77
2019-01-09T08:56:45.169Z,8.10
2019-01-09T08:59:13.018Z,2.77
2019-01-09T09:01:40.837Z,5.10
2019-01-09T09:04:08.590Z,1.98
2019-01-09T09:06:36.148Z,3.62
2019-01-09T09:09:06.739Z,4.93
2019-01-09T09:11:34.342Z,1.77
2019-01-09T09:14:02.181Z,3.17
2019-01-09T09:16:36.592Z,3.65
2019-01-09T09:18:59.360Z,4.93
2019-01-09T09:21:27.010Z,3.27
2019-01-09T09:23:54.828Z,1.92
2019-01-09T09:26:22.449Z,2.17
2019-01-09T09:28:51.842Z,1.60
2019-01-09T09:31:21.265Z,3.43
2019-01-09T09:33:48.978Z,1.23
2019-01-09T09:36:18.857Z,1.67
2019-01-09T09:38:47.267Z,2.30
2019-01-09T09:41:14.887Z,2.40
2019-01-09T09:43:42.679Z,3.00
2019-01-09T09:46:10.738Z,2.03
2019-01-09T09:48:38.517Z,3.47
2019-01-09T09:51:06.135Z,3.63
2019-01-09T09:53:33.879Z,2.00
2019-01-09T09:56:02.753Z,4.27
2019-01-09T09:58:34.698Z,3.60
2019-01-09T10:01:02.495Z,2.83
2019-01-09T10:03:30.503Z,0.80
2019-01-09T10:05:58.107Z,3.13
2019-01-09T10:08:29.560Z,4.13
2019-01-09T10:10:58.227Z,4.13
2019-01-09T10:13:25.834Z,4.67
2019-01-09T10:15:53.766Z,3.52
2019-01-09T10:18:21.553Z,4.13
2019-01-09T10:20:49.328Z,4.83
2019-01-09T10:23:26.229Z,2.83
2019-01-09T10:25:53.979Z,3.73
2019-01-09T10:28:21.595Z,6.15
2019-01-09T10:30:50.890Z,3.10
2019-01-09T10:33:18.507Z,5.30
2019-01-09T10:35:47.423Z,4.20
2019-01-09T10:38:15.057Z,3.50
2019-01-09T10:40:42.694Z,3.67
2019-01-09T10:43:12.235Z,3.53
2019-01-09T10:45:39.971Z,2.03
2019-01-09T10:48:07.741Z,6.13
2019-01-09T10:50:35.410Z,5.37
2019-01-09T10:53:04.153Z,4.37
2019-01-09T10:55:31.733Z,5.57
2019-01-09T10:57:59.341Z,6.20
2019-01-09T11:00:27.183Z,1.57
2019-01-09T11:02:56.373Z,4.67
2019-01-09T11:05:24.472Z,4.67
2019-01-09T11:07:52.258Z,2.70
2019-01-09T11:10:22.361Z,3.80
2019-01-09T11:12:52.941Z,1.87
2019-01-09T11:15:20.994Z,1.97
2019-01-09T11:17:48.625Z,4.73
2019-01-09T11:20:18.242Z,2.77
2019-01-09T11:22:48.981Z,3.60
2019-01-09T11:25:21.356Z,1.30
2019-01-09T11:27:51.357Z,4.30
2019-01-09T11:30:19.182Z,2.83
2019-01-09T11:32:46.854Z,5.20
2019-01-09T11:35:16.680Z,5.17
2019-01-09T11:37:44.373Z,3.37
2019-01-09T11:40:17.464Z,3.23
2019-01-09T11:42:45.307Z,3.90
2019-01-09T11:45:19.802Z,4.13
2019-01-09T11:47:48.046Z,4.67
2019-01-09T11:50:16.025Z,3.53
2019-01-09T11:52:45.841Z,4.05
2019-01-09T11:55:16.840Z,2.50
2019-01-09T11:57:44.575Z,8.13
2019-01-09T12:00:31.677Z,3.63
2019-01-09T12:02:59.432Z,2.87
2019-01-09T12:05:27.038Z,4.57
2019-01-09T12:07:54.698Z,3.43
2019-01-09T12:10:33.407Z,4.97
2019-01-09T12:13:01.593Z,3.33
2019-01-09T12:15:32.008Z,3.80
2019-01-09T12:17:59.865Z,4.25
2019-01-09T12:20:27.625Z,3.43
2019-01-09T12:22:55.237Z,2.87
2019-01-09T12:25:23.030Z,3.57
2019-01-09T12:27:50.792Z,4.63
2019-01-09T12:30:22.412Z,1.80
2019-01-09T12:32:50.051Z,5.03
2019-01-09T12:35:17.702Z,4.97
2019-01-09T12:37:46.844Z,5.27
2019-01-09T12:40:17.681Z,6.40
2019-01-09T12:42:45.432Z,3.83
2019-01-09T12:45:14.169Z,6.07
2019-01-09T12:47:41.817Z,6.00
2019-01-09T12:50:14.182Z,2.93
2019-01-09T12:52:43.758Z,6.87
2019-01-09T12:55:14.057Z,4.30
2019-01-09T12:57:41.751Z,2.27
2019-01-09T13:00:40.010Z,3.83
2019-01-09T13:03:07.698Z,3.58
2019-01-09T13:05:35.324Z,1.37
2019-01-09T13:08:02.918Z,1.97
2019-01-09T13:10:30.654Z,5.27
2019-01-09T13:13:00.402Z,4.77
2019-01-09T13:15:29.314Z,4.17
2019-01-09T13:18:11.926Z,3.10
2019-01-09T13:20:37.832Z,4.03
2019-01-09T13:23:05.461Z,5.83
2019-01-09T13:25:35.459Z,8.03
2019-01-09T13:28:03.125Z,7.90
2019-01-09T13:30:30.675Z,2.03
2019-01-09T13:33:06.731Z,5.03
2019-01-09T13:35:34.364Z,3.22
2019-01-09T13:38:03.060Z,4.20
2019-01-09T13:40:31.903Z,2.45
2019-01-09T13:42:59.518Z,2.80
2019-01-09T13:45:27.243Z,3.77
2019-01-09T13:47:54.904Z,3.80
2019-01-09T13:50:22.545Z,4.20
2019-01-09T13:52:50.170Z,1.77
2019-01-09T13:55:18.361Z,4.27
2019-01-09T13:57:46.072Z,4.00
2019-01-09T14:00:16.146Z,4.27
2019-01-09T14:02:47.018Z,3.12
2019-01-09T14:05:16.196Z,3.45
2019-01-09T14:07:43.904Z,5.40
2019-01-09T14:10:14.035Z,2.40
2019-01-09T14:12:41.622Z,2.57
2019-01-09T14:15:11.328Z,5.08
2019-01-09T14:17:38.932Z,4.72
2019-01-09T14:20:08.492Z,2.63
2019-01-09T14:22:36.149Z,3.97
2019-01-09T14:25:06.889Z,3.40
2019-01-09T14:27:34.483Z,3.37
2019-01-09T14:30:02.131Z,2.23
2019-01-09T14:32:33.016Z,3.60
2019-01-09T14:35:03.433Z,3.50
2019-01-09T14:37:39.176Z,5.65
2019-01-09T14:40:08.365Z,6.05
2019-01-09T14:42:35.988Z,3.42
2019-01-09T14:45:07.924Z,2.37
2019-01-09T14:47:35.543Z,4.35
2019-01-09T14:50:04.694Z,3.93
2019-01-09T14:52:32.779Z,3.25
2019-01-09T14:55:00.373Z,4.30
2019-01-09T14:57:28.006Z,3.93
2019-01-09T14:59:57.898Z,4.90
2019-01-09T15:02:29.419Z,3.17
2019-01-09T15:04:57.391Z,4.90
2019-01-09T15:07:25.016Z,4.37
2019-01-09T15:09:56.832Z,5.92
2019-01-09T15:12:22.082Z,2.73
2019-01-09T15:14:52.090Z,4.25
2019-01-09T15:17:19.763Z,3.55
2019-01-09T15:19:49.847Z,3.52
2019-01-09T15:22:17.588Z,7.10
2019-01-09T15:24:48.473Z,7.00
2019-01-09T15:27:18.973Z,5.97
2019-01-09T15:29:48.098Z,3.85
2019-01-09T15:32:15.758Z,5.40
2019-01-09T15:34:44.590Z,4.22
2019-01-09T15:37:12.258Z,3.05
2019-01-09T15:39:42.854Z,4.28
2019-01-09T15:42:13.186Z,5.37
2019-01-09T15:44:44.152Z,7.05
2019-01-09T15:47:11.837Z,5.10
2019-01-09T15:49:39.735Z,3.72
2019-01-09T15:52:07.604Z,3.02
2019-01-09T15:54:35.443Z,5.70
2019-01-09T15:57:03.073Z,4.70
2019-01-09T15:59:30.702Z,4.03
2019-01-09T16:02:01.252Z,3.52
2019-01-09T16:04:28.853Z,3.55
2019-01-09T16:06:59.116Z,2.70
2019-01-09T16:09:26.739Z,4.90
2019-01-09T16:11:54.368Z,4.00
2019-01-09T16:14:22.272Z,2.90
2019-01-09T16:16:49.890Z,4.42
2019-01-09T16:19:17.675Z,2.85
2019-01-09T16:21:45.355Z,4.37
2019-01-09T16:24:14.038Z,3.98
2019-01-09T16:26:43.538Z,2.60
2019-01-09T16:29:11.275Z,3.10
2019-01-09T16:31:39.778Z,4.67
2019-01-09T16:34:10.130Z,4.90
2019-01-09T16:36:42.498Z,5.55
2019-01-09T16:39:10.356Z,2.50
2019-01-09T16:41:38.018Z,5.08
2019-01-09T16:44:10.983Z,3.37
2019-01-09T16:46:38.570Z,2.92
2019-01-09T16:49:06.244Z,2.65
2019-01-09T16:51:34.419Z,2.50
2019-01-09T16:54:02.064Z,2.50
2019-01-09T16:56:29.933Z,4.90
2019-01-09T16:58:57.602Z,2.08
2019-01-09T17:01:27.516Z,2.35
2019-01-09T17:04:02.406Z,3.52
2019-01-09T17:06:30.571Z,3.87
2019-01-09T17:09:03.181Z,3.23
2019-01-09T17:11:32.055Z,3.35
2019-01-09T17:13:59.782Z,2.80
2019-01-09T17:16:27.842Z,4.53
2019-01-09T17:18:55.511Z,5.45
2019-01-09T17:21:26.158Z,3.70
2019-01-09T17:24:04.211Z,2.22
2019-01-09T17:26:23.330Z,3.00
2019-01-09T17:28:51.005Z,1.72
2019-01-09T17:31:18.738Z,3.15
2019-01-09T17:33:46.790Z,2.58
2019-01-09T17:36:15.766Z,2.92
2019-01-09T17:38:47.299Z,3.17
2019-01-09T17:41:15.192Z,1.77
2019-01-09T17:43:42.932Z,3.42
2019-01-09T17:46:13.843Z,2.92
2019-01-09T17:48:41.863Z,3.67
2019-01-09T17:51:09.624Z,3.35
2019-01-09T17:53:37.518Z,2.02
2019-01-09T17:56:05.149Z,4.25
2019-01-09T17:58:35.505Z,6.17
2019-01-09T18:01:05.027Z,4.73
2019-01-09T18:03:35.180Z,3.22
2019-01-09T18:06:03.186Z,4.78
2019-01-09T18:08:30.834Z,4.50
2019-01-09T18:11:06.956Z,5.10
2019-01-09T18:13:53.491Z,3.08
2019-01-09T18:16:23.014Z,3.02
2019-01-09T18:18:50.908Z,3.67
2019-01-09T18:21:24.299Z,4.15
2019-01-09T18:24:02.729Z,5.37
2019-01-09T18:26:30.362Z,5.03
2019-01-09T18:28:59.741Z,3.60
2019-01-09T18:32:14.152Z,3.92
2019-01-09T18:35:03.147Z,4.05
2019-01-09T18:38:25.358Z,2.92
2019-01-09T18:41:25.163Z,5.00
2019-01-09T18:44:53.964Z,3.30
2019-01-09T18:47:57.544Z,4.30
2019-01-09T18:51:22.730Z,7.28
2019-01-09T18:53:52.154Z,4.22
2019-01-09T18:56:20.019Z,4.85
2019-01-09T18:58:48.199Z,4.67
2019-01-09T19:01:24.999Z,5.12
2019-01-09T19:03:55.591Z,4.90
2019-01-09T19:06:34.775Z,4.85
2019-01-09T19:08:55.897Z,6.03
2019-01-09T19:11:23.805Z,4.30
2019-01-09T19:13:57.858Z,4.80
2019-01-09T19:16:25.496Z,5.17
2019-01-09T19:18:54.869Z,5.42
2019-01-09T19:21:25.475Z,4.33
2019-01-09T19:23:55.001Z,6.10
2019-01-09T19:26:22.897Z,10.93
2019-01-09T19:28:50.506Z,8.48
2019-01-09T19:31:19.870Z,14.47
2019-01-09T19:33:47.686Z,26.15
2019-01-09T19:36:18.076Z,15.00
2019-01-09T19:38:45.798Z,16.15
2019-01-09T19:41:17.199Z,13.18
2019-01-09T19:43:55.742Z,10.28
2019-01-09T19:46:31.585Z,7.55
2019-01-09T19:48:59.199Z,11.00
2019-01-09T19:51:26.841Z,8.33
2019-01-09T19:53:54.797Z,7.90
2019-01-09T19:56:22.465Z,8.75
2019-01-09T19:58:50.376Z,6.70
2019-01-09T20:01:17.987Z,6.42
2019-01-09T20:03:45.623Z,7.72
2019-01-09T20:06:14.673Z,10.10
2019-01-09T20:08:44.279Z,7.35
2019-01-09T20:11:12.056Z,14.20
2019-01-09T20:13:40.905Z,11.30
2019-01-09T20:16:14.513Z,9.70
2019-01-09T20:18:50.017Z,10.65
2019-01-09T20:21:18.349Z,9.83
2019-01-09T20:23:48.575Z,11.73
2019-01-09T20:26:16.347Z,7.58
2019-01-09T20:28:44.934Z,7.12
2019-01-09T20:31:12.695Z,8.35
2019-01-09T20:33:40.468Z,11.28
2019-01-09T20:36:10.011Z,8.23
2019-01-09T20:38:37.857Z,6.55
2019-01-09T20:41:11.158Z,7.28
2019-01-09T20:43:41.039Z,6.30
2019-01-09T20:46:11.465Z,6.60
2019-01-09T20:48:43.954Z,8.05
2019-01-09T20:51:14.477Z,8.50
2019-01-09T20:53:49.552Z,7.92
2019-01-09T20:56:23.283Z,6.25
2019-01-09T20:58:54.341Z,7.97
2019-01-09T21:01:22.522Z,7.35
2019-01-09T21:03:53.337Z,8.30
2019-01-09T21:06:51.057Z,6.87
2019-01-09T21:09:18.636Z,10.98
2019-01-09T21:11:48.216Z,8.23
2019-01-09T21:14:15.832Z,8.00
2019-01-09T21:16:43.561Z,7.37
2019-01-09T21:19:11.092Z,6.70
2019-01-09T21:21:41.810Z,7.80
2019-01-09T21:24:11.154Z,7.72
2019-01-09T21:26:38.743Z,6.35
2019-01-09T21:29:06.726Z,7.05
2019-01-09T21:31:34.638Z,8.28
2019-01-09T21:34:02.987Z,7.50
2019-01-09T21:36:36.305Z,7.65
2019-01-09T21:39:03.326Z,7.85
2019-01-09T21:41:33.317Z,7.33
2019-01-09T21:44:00.934Z,7.70
2019-01-09T21:46:28.490Z,6.40
2019-01-09T21:48:56.579Z,8.35
2019-01-09T21:51:26.901Z,8.25
2019-01-09T21:53:54.458Z,5.45
2019-01-09T21:56:21.968Z,7.65
2019-01-09T21:58:52.837Z,7.03
2019-01-09T22:01:20.605Z,8.13
2019-01-09T22:03:48.538Z,8.85
2019-01-09T22:06:19.564Z,6.85
2019-01-09T22:08:47.176Z,7.33
2019-01-09T22:11:16.715Z,8.38
2019-01-09T22:13:53.425Z,7.72
2019-01-09T22:16:20.976Z,8.63
2019-01-09T22:18:48.622Z,5.65
2019-01-09T22:21:21.231Z,6.50
2019-01-09T22:23:48.781Z,6.58
2019-01-09T22:26:17.950Z,7.92
2019-01-09T22:28:47.454Z,6.03
2019-01-09T22:31:15.036Z,7.28
2019-01-09T22:33:44.798Z,7.10
2019-01-09T22:36:12.752Z,7.90
2019-01-09T22:38:40.872Z,8.35
2019-01-09T22:41:08.451Z,7.10
2019-01-09T22:43:36.303Z,6.53
2019-01-09T22:46:06.672Z,6.85
2019-01-09T22:48:36.306Z,5.40
2019-01-09T22:51:05.444Z,7.87
2019-01-09T22:53:36.247Z,6.62
2019-01-09T22:56:03.959Z,5.70
2019-01-09T22:58:31.746Z,6.47
2019-01-09T23:01:25.804Z,5.53
2019-01-09T23:03:54.552Z,7.25
2019-01-09T23:06:22.695Z,6.72
2019-01-09T23:08:50.483Z,4.70
2019-01-09T23:11:18.108Z,7.08
2019-01-09T23:13:45.896Z,5.10
2019-01-09T23:16:13.470Z,9.35
2019-01-09T23:18:41.193Z,7.00
2019-01-09T23:21:08.744Z,9.38
2019-01-09T23:23:36.344Z,7.08
2019-01-09T23:26:05.097Z,6.20
2019-01-09T23:28:35.400Z,7.97
2019-01-09T23:31:04.147Z,7.15
2019-01-09T23:33:31.758Z,4.20
2019-01-09T23:35:59.512Z,4.58
2019-01-09T23:38:27.171Z,6.65
2019-01-09T23:40:56.258Z,4.80
2019-01-09T23:43:24.642Z,4.35
2019-01-09T23:45:53.321Z,5.00
2019-01-09T23:48:23.229Z,3.52
2019-01-09T23:50:52.246Z,4.25
2019-01-09T23:53:19.996Z,5.85
2019-01-09T23:55:47.765Z,3.58
2019-01-09T23:58:15.483Z,6.10
